Time;durP1;ratioP1;P1;durP2;ratioP2;P2;SDS_P1;SDS_P2;PMS_P1;PMS_P2;Temp;Humidity;BMP_temperature;BMP_pressure;BME280_temperature;BME280_humidity;BME280_pressure;Samples;Min_cycle;Max_cycle;Signal;HPM_P1;HPM_P2
2022/02/01 00:01:58;;;;;;;189.85;21.35;;;;;;;7.07;59.23;99674.47;5093317;28;20039;-49
2022/02/01 00:04:45;;;;;;;519.03;56.05;;;;;;;7.09;59.66;99669.91;5093010;28;20024;-48
2022/02/01 00:17:44;;;;;;;38.00;6.53;;;;;;;7.96;58.95;99669.84;5082162;28;20040;-48
2022/02/01 00:36:31;;;;;;;18.98;4.18;;;;;;;7.58;58.86;99693.69;5092657;28;20505;-48
2022/02/01 00:39:02;;;;;;;21.20;4.30;;;;;;;7.49;59.10;99680.78;5092071;28;20035;-48
2022/02/01 00:41:31;;;;;;;9.10;2.35;;;;;;;7.47;60.09;99683.53;5092331;28;20222;-48
2022/02/01 00:43:59;;;;;;;13.32;2.45;;;;;;;7.46;58.94;99668.81;5090745;28;20043;-50
2022/02/01 00:46:25;;;;;;;24.52;3.95;;;;;;;7.43;59.43;99671.75;5092229;28;20528;-50
2022/02/01 00:48:50;;;;;;;13.32;3.00;;;;;;;7.46;59.35;99674.03;5092082;28;20024;-48
2022/02/01 00:51:17;;;;;;;11.88;2.97;;;;;;;7.57;59.79;99668.56;5090844;28;20478;-49
2022/02/01 00:53:43;;;;;;;9.20;2.40;;;;;;;7.71;59.22;99661.09;5090737;28;20024;-49
2022/02/01 00:56:09;;;;;;;13.85;3.20;;;;;;;7.88;58.94;99660.16;5090709;28;20536;-49
2022/02/01 00:58:36;;;;;;;19.60;2.92;;;;;;;8.08;58.74;99660.72;5092007;28;20027;-49
2022/02/01 01:01:02;;;;;;;301.83;30.00;;;;;;;8.19;58.43;99660.44;5092014;28;20103;-48
2022/02/01 01:03:27;;;;;;;409.58;45.70;;;;;;;8.19;58.02;99652.59;5091931;28;20095;-48
2022/02/01 01:05:53;;;;;;;349.35;39.97;;;;;;;8.22;58.30;99650.63;5091900;28;20398;-48
2022/02/01 01:08:19;;;;;;;310.60;34.58;;;;;;;8.01;58.00;99641.44;5091947;28;20461;-48
2022/02/01 01:10:45;;;;;;;242.70;31.08;;;;;;;7.85;58.72;99629.16;5091809;28;20039;-49
2022/02/01 01:14:18;;;;;;;45.50;6.18;;;;;;;7.73;58.76;99644.28;5090578;28;20020;-48
2022/02/01 01:52:58;;;;;;;24.42;3.20;;;;;;;7.52;57.18;99621.19;5091617;28;20039;-48
2022/02/01 01:54:01;;;;;;;17.70;3.40;;;;;;;7.44;57.68;99628.97;5091584;28;20024;-48
2022/02/01 01:56:33;;;;;;;14.65;3.67;;;;;;;7.54;58.46;99637.50;5091429;28;20375;-49
2022/02/01 01:59:05;;;;;;;16.30;3.85;;;;;;;7.66;58.72;99634.63;5091520;28;20028;-48
2022/02/01 02:01:32;;;;;;;8.38;2.60;;;;;;;7.56;58.52;99632.94;5091458;28;20474;-50
2022/02/01 02:03:58;;;;;;;8.32;4.72;;;;;;;7.29;58.30;99633.16;5091417;28;20101;-48
2022/02/01 02:06:24;;;;;;;8.70;3.08;;;;;;;7.00;59.48;99632.53;5091394;28;20024;-49
2022/02/01 02:08:53;;;;;;;13.43;3.65;;;;;;;6.82;59.49;99644.78;5091580;28;20101;-49
2022/02/01 02:11:29;;;;;;;11.48;3.78;;;;;;;6.67;59.73;99644.50;5091286;28;20028;-48
2022/02/01 02:14:20;;;;;;;30.15;16.88;;;;;;;6.59;60.17;99634.81;5091358;28;20486;-50
2022/02/01 02:16:52;;;;;;;10.27;3.53;;;;;;;6.63;59.46;99644.97;5094337;28;20032;-49
2022/02/01 02:19:19;;;;;;;11.70;2.50;;;;;;;6.67;59.55;99643.69;5095022;28;20024;-49
2022/02/01 02:21:53;;;;;;;14.25;2.92;;;;;;;6.66;59.31;99642.03;5094894;28;20028;-48
2022/02/01 02:24:20;;;;;;;11.27;2.30;;;;;;;6.73;59.28;99635.25;5094933;28;20020;-49
2022/02/01 02:26:49;;;;;;;14.88;2.65;;;;;;;6.76;58.93;99625.34;5094800;28;20107;-48
2022/02/01 02:29:15;;;;;;;21.80;3.70;;;;;;;6.73;59.05;99615.22;5093380;28;20402;-47
2022/02/01 02:31:41;;;;;;;13.20;3.05;;;;;;;6.82;59.42;99613.47;5093328;28;20456;-50
2022/02/01 02:34:12;;;;;;;9.23;2.92;;;;;;;6.88;58.41;99617.25;5094724;28;20069;-49
2022/02/01 02:36:45;;;;;;;10.73;2.88;;;;;;;6.83;57.86;99611.69;5094633;28;20032;-48
2022/02/01 02:41:54;;;;;;;20.85;2.78;;;;;;;6.75;57.66;99612.44;5094599;28;20027;-48
2022/02/01 02:47:07;;;;;;;16.05;2.88;;;;;;;6.99;57.56;99615.22;5094473;28;20038;-49
2022/02/01 02:49:33;;;;;;;9.80;3.15;;;;;;;7.11;57.52;99623.59;5094394;28;20099;-49
2022/02/01 02:51:59;;;;;;;14.05;4.43;;;;;;;7.24;57.14;99617.94;5094340;28;20512;-48
2022/02/01 02:54:26;;;;;;;12.23;2.47;;;;;;;7.33;56.21;99611.00;5094287;28;20047;-49
2022/02/01 02:56:55;;;;;;;11.70;2.78;;;;;;;7.36;56.59;99616.72;5094238;28;20020;-49
2022/02/01 02:59:23;;;;;;;13.77;2.72;;;;;;;7.35;56.56;99622.91;5094180;28;20107;-47
2022/02/01 03:01:49;;;;;;;16.27;3.22;;;;;;;7.31;56.30;99628.63;5094186;28;20110;-49
2022/02/01 03:04:23;;;;;;;10.48;3.22;;;;;;;7.16;55.83;99623.13;5094170;28;20046;-47
2022/02/01 03:06:49;;;;;;;11.80;2.80;;;;;;;6.95;55.45;99624.31;5092775;28;20515;-47
2022/02/01 03:09:16;;;;;;;15.30;2.42;;;;;;;6.71;56.36;99618.94;5093935;28;20077;-48
2022/02/01 03:11:42;;;;;;;11.95;3.00;;;;;;;6.61;56.56;99632.06;5093984;28;20020;-47
2022/02/01 03:17:05;;;;;;;15.23;2.55;;;;;;;6.48;56.27;99640.28;5093945;28;20070;-48
2022/02/01 03:22:16;;;;;;;11.43;3.55;;;;;;;6.46;56.84;99657.03;5093799;28;20081;-48
2022/02/01 03:24:42;;;;;;;12.45;2.70;;;;;;;6.40;56.71;99661.09;5093769;28;20111;-48
2022/02/01 03:27:08;;;;;;;10.38;2.28;;;;;;;6.37;56.61;99663.97;5092548;28;20095;-49
2022/02/01 03:29:33;;;;;;;9.90;2.60;;;;;;;6.34;55.77;99659.06;5093531;28;20040;-47
2022/02/01 03:31:59;;;;;;;10.48;3.35;;;;;;;6.27;56.18;99651.00;5093825;28;20393;-50
2022/02/01 03:34:25;;;;;;;13.40;2.80;;;;;;;6.24;56.07;99661.75;5093502;28;20032;-51
2022/02/01 03:36:51;;;;;;;15.23;2.70;;;;;;;6.21;55.93;99667.25;5093448;28;20058;-50
2022/02/01 03:39:17;;;;;;;13.32;3.63;;;;;;;6.22;56.02;99668.91;5093462;28;20035;-49
2022/02/01 03:41:43;;;;;;;15.02;3.08;;;;;;;6.16;55.54;99670.31;5093320;28;20020;-51
2022/02/01 03:44:11;;;;;;;15.52;2.65;;;;;;;6.15;55.60;99663.44;5091832;28;20052;-51
2022/02/01 03:46:38;;;;;;;18.02;4.50;;;;;;;6.16;55.44;99661.66;5093200;28;20031;-50
2022/02/01 03:49:04;;;;;;;9.20;2.67;;;;;;;6.05;55.46;99669.69;5093186;28;20024;-49
2022/02/01 03:51:30;;;;;;;11.13;3.03;;;;;;;6.04;54.48;99671.47;5093155;28;20027;-49
2022/02/01 03:53:56;;;;;;;13.65;3.20;;;;;;;6.00;54.88;99663.13;5093165;28;20028;-50
2022/02/01 03:56:21;;;;;;;17.83;2.75;;;;;;;6.00;55.09;99657.91;5093068;28;20043;-50
2022/02/01 03:58:47;;;;;;;494.63;56.75;;;;;;;6.06;55.04;99658.31;5091706;28;20031;-49
2022/02/01 04:01:13;;;;;;;458.77;51.40;;;;;;;6.01;54.87;99663.94;5092964;28;20042;-50
2022/02/01 04:03:38;;;;;;;607.88;72.15;;;;;;;6.05;55.67;99672.28;5091613;28;20029;-48
2022/02/01 04:06:04;;;;;;;312.67;33.00;;;;;;;6.14;55.47;99676.63;5092884;28;20016;-49
2022/02/01 04:08:30;;;;;;;321.67;33.10;;;;;;;6.20;55.17;99671.66;5092810;28;20028;-48
2022/02/01 04:10:55;;;;;;;1139.22;150.93;;;;;;;6.24;54.64;99677.38;5092672;28;20024;-47
2022/02/01 04:13:21;;;;;;;953.55;114.05;;;;;;;6.26;55.03;99679.81;5092740;28;20028;-49
2022/02/01 04:15:47;;;;;;;340.98;37.53;;;;;;;6.24;53.96;99693.03;5092735;28;20504;-48
2022/02/01 04:18:13;;;;;;;780.22;100.50;;;;;;;6.17;53.60;99697.19;5092947;28;20028;-49
2022/02/01 04:20:39;;;;;;;487.45;57.92;;;;;;;6.14;54.40;99702.69;5092599;28;20080;-47
2022/02/01 04:23:05;;;;;;;543.88;61.92;;;;;;;6.14;54.77;99700.91;5092586;28;20103;-48
2022/02/01 04:25:31;;;;;;;1384.63;184.75;;;;;;;6.09;54.56;99690.09;5092460;28;20020;-48
2022/02/01 04:27:57;;;;;;;186.35;20.35;;;;;;;6.01;54.51;99695.22;5092527;28;20032;-48
2022/02/01 04:30:23;;;;;;;867.40;111.57;;;;;;;5.86;54.95;99699.25;5091020;28;20016;-48
2022/02/01 04:32:51;;;;;;;374.45;44.65;;;;;;;5.76;55.65;99707.09;5092401;28;20479;-48
2022/02/01 04:35:23;;;;;;;378.52;38.35;;;;;;;5.83;55.64;99704.75;5091050;28;20020;-47
2022/02/01 04:37:54;;;;;;;224.32;24.23;;;;;;;5.89;54.72;99710.19;5092094;28;20410;-48
2022/02/01 04:40:21;;;;;;;1578.35;208.20;;;;;;;5.69;55.50;99711.25;5092323;28;20089;-48
2022/02/01 04:42:47;;;;;;;371.88;47.42;;;;;;;5.78;55.54;99706.00;5092291;28;20048;-48
2022/02/01 04:45:16;;;;;;;847.67;104.25;;;;;;;5.98;54.86;99711.16;5092257;28;20027;-49
2022/02/01 04:47:44;;;;;;;328.70;29.60;;;;;;;6.00;54.95;99706.59;5092218;28;20520;-49
2022/02/01 04:50:13;;;;;;;913.63;117.95;;;;;;;5.88;55.40;99705.94;5092019;28;20024;-47
2022/02/01 04:52:44;;;;;;;1196.63;151.90;;;;;;;5.93;54.68;99714.13;5092137;28;20099;-49
2022/02/01 04:55:11;;;;;;;269.92;27.25;;;;;;;6.06;55.27;99711.25;5092212;28;20028;-47
2022/02/01 04:57:44;;;;;;;946.40;115.88;;;;;;;6.14;54.99;99711.31;5092159;28;20019;-49
2022/02/01 05:00:10;;;;;;;503.90;52.50;;;;;;;6.04;54.57;99705.34;5092090;28;20024;-48
2022/02/01 05:02:36;;;;;;;121.15;16.10;;;;;;;5.87;54.34;99708.69;5092016;28;20024;-49
2022/02/01 05:05:02;;;;;;;720.35;81.30;;;;;;;5.69;54.73;99709.44;5091996;28;20545;-48
2022/02/01 05:07:28;;;;;;;737.58;85.85;;;;;;;5.77;54.93;99717.34;5090662;28;20020;-49
2022/02/01 05:09:57;;;;;;;541.60;68.03;;;;;;;5.95;54.71;99721.84;5091813;28;20393;-48
2022/02/01 05:12:23;;;;;;;365.10;43.20;;;;;;;6.16;55.18;99725.03;5091835;28;20494;-49
2022/02/01 05:14:49;;;;;;;477.10;51.15;;;;;;;6.38;54.68;99700.34;5091908;28;20028;-50
2022/02/01 05:17:17;;;;;;;549.92;61.85;;;;;;;6.47;53.92;99682.16;5091801;28;20027;-50
2022/02/01 05:22:12;;;;;;;389.67;38.58;;;;;;;6.37;54.09;99716.13;5091742;28;20028;-50
2022/02/01 05:24:39;;;;;;;1060.30;140.48;;;;;;;6.28;54.42;99717.84;5091828;28;20028;-48
2022/02/01 05:27:10;;;;;;;730.92;95.85;;;;;;;6.20;54.33;99710.75;5091782;28;20081;-47
2022/02/01 05:29:37;;;;;;;168.02;20.98;;;;;;;6.06;53.79;99695.59;5091747;28;20028;-49
2022/02/01 05:32:17;;;;;;;487.48;52.72;;;;;;;5.82;54.19;99709.13;5091693;28;20032;-48
2022/02/01 05:34:43;;;;;;;578.50;63.55;;;;;;;5.73;54.62;99726.44;5091706;28;20482;-48
2022/02/01 05:37:08;;;;;;;658.40;80.95;;;;;;;5.73;55.04;99731.63;5091646;28;20016;-48
2022/02/01 05:39:34;;;;;;;368.27;37.45;;;;;;;5.73;54.64;99734.25;5091645;28;20559;-47
2022/02/01 05:42:00;;;;;;;560.83;64.22;;;;;;;5.64;54.69;99755.13;5091354;28;20039;-47
2022/02/01 05:44:25;;;;;;;354.95;38.55;;;;;;;5.61;54.41;99758.81;5091606;28;20402;-49
2022/02/01 05:46:51;;;;;;;586.50;79.15;;;;;;;5.61;54.42;99753.59;5091587;28;20050;-48
2022/02/01 05:49:18;;;;;;;628.15;80.03;;;;;;;5.59;54.55;99771.16;5091447;28;20021;-49
2022/02/01 05:51:44;;;;;;;521.63;62.13;;;;;;;5.56;55.04;99779.28;5094720;28;20024;-48
2022/02/01 05:54:09;;;;;;;272.15;32.22;;;;;;;5.56;55.15;99776.66;5095700;28;20023;-49
2022/02/01 05:56:35;;;;;;;774.08;108.18;;;;;;;5.46;54.91;99773.28;5095363;28;20035;-49
2022/02/01 05:59:01;;;;;;;396.00;43.95;;;;;;;5.38;55.28;99777.38;5094013;28;20118;-48
2022/02/01 06:01:26;;;;;;;194.40;23.73;;;;;;;5.27;55.62;99780.16;5095323;28;20052;-47
2022/02/01 06:03:52;;;;;;;326.67;38.00;;;;;;;5.17;56.32;99785.38;5095288;28;20020;-47
2022/02/01 06:06:18;;;;;;;274.65;27.05;;;;;;;5.17;56.29;99794.94;5095180;28;20035;-48
2022/02/01 06:08:43;;;;;;;395.05;46.30;;;;;;;5.15;56.40;99805.50;5095110;28;20024;-51
2022/02/01 06:11:09;;;;;;;841.65;107.75;;;;;;;5.14;56.20;99809.03;5093770;28;20058;-51
2022/02/01 06:13:36;;;;;;;373.80;38.38;;;;;;;5.06;56.16;99803.72;5093806;28;20494;-49
2022/02/01 06:16:06;;;;;;;345.35;35.92;;;;;;;5.01;56.76;99800.72;5095038;28;20024;-48
2022/02/01 06:18:31;;;;;;;259.15;27.45;;;;;;;4.92;56.29;99785.91;5095047;28;20028;-47
2022/02/01 06:20:59;;;;;;;265.48;24.20;;;;;;;4.84;57.18;99789.19;5094937;28;20028;-48
2022/02/01 06:23:25;;;;;;;63.75;9.65;;;;;;;4.90;56.89;99796.44;5094840;28;20039;-48
2022/02/01 06:25:51;;;;;;;1198.20;152.38;;;;;;;4.80;56.70;99796.44;5094819;28;20103;-49
2022/02/01 06:28:28;;;;;;;284.83;28.52;;;;;;;4.78;57.00;99785.34;5094801;28;20482;-50
2022/02/01 06:30:55;;;;;;;723.83;77.93;;;;;;;4.87;57.50;99788.94;5094677;28;20028;-49
2022/02/01 06:33:21;;;;;;;601.58;65.18;;;;;;;4.93;57.25;99796.19;5094699;28;20069;-50
2022/02/01 06:35:48;;;;;;;570.78;66.15;;;;;;;5.04;57.10;99803.03;5094678;28;20028;-50
2022/02/01 06:38:14;;;;;;;450.92;46.22;;;;;;;5.08;57.16;99811.38;5094613;28;20451;-49
2022/02/01 06:40:46;;;;;;;512.80;57.97;;;;;;;5.15;56.56;99817.66;5094535;28;20028;-50
2022/02/01 06:43:13;;;;;;;277.80;32.22;;;;;;;5.20;56.88;99818.09;5094303;28;20032;-50
2022/02/01 06:45:40;;;;;;;686.08;84.72;;;;;;;5.25;56.47;99804.66;5094435;28;20027;-50
2022/02/01 06:48:06;;;;;;;982.85;122.82;;;;;;;5.30;56.56;99800.69;5094443;28;20166;-50
2022/02/01 06:50:34;;;;;;;860.08;109.10;;;;;;;5.42;56.61;99800.53;5093065;28;20021;-51
2022/02/01 06:53:02;;;;;;;648.35;84.15;;;;;;;5.54;56.31;99808.03;5094337;28;20146;-51
2022/02/01 06:55:36;;;;;;;452.90;50.20;;;;;;;5.73;56.59;99790.72;5094297;28;20024;-50
2022/02/01 06:58:03;;;;;;;903.80;115.57;;;;;;;5.96;55.28;99799.06;5093034;28;20032;-48
2022/02/01 07:00:30;;;;;;;321.52;37.17;;;;;;;5.99;54.65;99794.38;5094174;28;20024;-48
2022/02/01 07:02:56;;;;;;;392.52;41.30;;;;;;;5.95;54.24;99802.63;5093942;28;20058;-49
2022/02/01 07:05:22;;;;;;;550.67;72.20;;;;;;;5.90;54.88;99834.28;5094074;28;20044;-49
2022/02/01 07:07:50;;;;;;;405.15;49.92;;;;;;;5.84;54.09;99818.41;5092743;28;20406;-47
2022/02/01 07:10:17;;;;;;;554.13;64.65;;;;;;;5.73;54.72;99828.00;5093954;28;20401;-48
2022/02/01 07:12:42;;;;;;;702.13;84.22;;;;;;;5.75;54.45;99820.88;5094012;28;20520;-49
2022/02/01 07:15:08;;;;;;;487.10;52.22;;;;;;;5.82;53.99;99828.16;5093927;28;20056;-48
2022/02/01 07:17:48;;;;;;;664.53;75.43;;;;;;;5.82;54.46;99838.56;5093921;28;20027;-49
2022/02/01 07:20:14;;;;;;;680.55;79.00;;;;;;;5.86;54.11;99837.31;5093906;28;20084;-49
2022/02/01 07:22:42;;;;;;;461.33;51.22;;;;;;;5.90;53.77;99841.28;5092485;28;20024;-50
2022/02/01 07:25:15;;;;;;;464.58;51.30;;;;;;;6.11;53.72;99852.34;5093669;28;20020;-49
2022/02/01 07:27:47;;;;;;;541.67;64.85;;;;;;;6.69;53.78;99850.44;5093747;28;20032;-50
2022/02/01 07:30:16;;;;;;;361.08;39.20;;;;;;;7.56;52.35;99872.47;5093590;28;20052;-50
2022/02/01 07:32:42;;;;;;;160.23;17.20;;;;;;;8.10;50.75;99869.72;5093683;28;20031;-51
2022/02/01 07:35:09;;;;;;;581.25;65.53;;;;;;;8.64;49.75;99877.38;5093519;28;20392;-49
2022/02/01 07:37:35;;;;;;;546.88;63.33;;;;;;;9.10;48.95;99870.78;5093475;28;20055;-49
2022/02/01 07:40:03;;;;;;;179.73;24.13;;;;;;;9.22;48.19;99886.19;5093412;28;20024;-49
2022/02/01 07:42:29;;;;;;;313.10;37.60;;;;;;;9.19;47.40;99887.31;5093171;28;20040;-48
2022/02/01 07:44:59;;;;;;;330.85;39.22;;;;;;;9.10;47.80;99881.25;5093415;28;20024;-48
2022/02/01 07:47:25;;;;;;;318.13;33.38;;;;;;;9.19;47.72;99889.94;5093611;28;20513;-49
2022/02/01 07:49:51;;;;;;;1353.00;171.63;;;;;;;9.78;47.02;99893.25;5093106;28;20022;-48
2022/02/01 07:52:17;;;;;;;625.83;76.70;;;;;;;10.68;45.24;99897.44;5093215;28;20401;-49
2022/02/01 07:54:45;;;;;;;384.98;45.15;;;;;;;11.58;43.86;99893.44;5093205;28;20023;-49
2022/02/01 07:57:11;;;;;;;735.55;95.55;;;;;;;11.98;42.09;99886.22;5092978;28;20058;-49
2022/02/01 07:59:37;;;;;;;248.77;29.38;;;;;;;12.45;40.77;99890.31;5093069;28;20020;-49
2022/02/01 08:02:04;;;;;;;552.83;65.78;;;;;;;12.65;40.39;99885.28;5091691;28;20028;-49
2022/02/01 08:04:34;;;;;;;226.18;25.42;;;;;;;12.91;39.24;99882.16;5091667;28;20031;-49
2022/02/01 08:07:03;;;;;;;606.20;73.53;;;;;;;12.92;38.48;99883.81;5091645;28;20039;-48
2022/02/01 08:09:35;;;;;;;552.53;70.68;;;;;;;12.33;38.65;99883.88;5092809;28;20020;-49
2022/02/01 08:12:03;;;;;;;271.70;29.35;;;;;;;11.74;39.82;99884.59;5092888;28;20028;-50
2022/02/01 08:15:20;;;;;;;689.03;97.07;;;;;;;11.62;40.14;99870.25;5092237;28;20047;-48
2022/02/01 08:20:02;;;;;;;396.05;44.70;;;;;;;11.42;39.96;99881.25;5092705;28;20093;-49
2022/02/01 08:24:58;;;;;;;222.38;25.02;;;;;;;10.34;40.84;99885.47;5093047;28;20024;-48
2022/02/01 08:27:24;;;;;;;496.73;66.88;;;;;;;9.68;42.29;99876.88;5092532;28;20032;-49
2022/02/01 08:29:50;;;;;;;359.90;39.25;;;;;;;9.26;43.28;99877.84;5092383;28;20021;-48
2022/02/01 08:32:16;;;;;;;684.95;81.53;;;;;;;8.93;43.79;99887.41;5092759;28;20398;-48
2022/02/01 08:34:42;;;;;;;355.65;38.17;;;;;;;8.70;44.45;99888.00;5092452;28;20486;-49
2022/02/01 08:37:07;;;;;;;665.60;91.10;;;;;;;8.50;44.83;99890.06;5092302;28;20393;-48
2022/02/01 08:39:33;;;;;;;564.95;68.93;;;;;;;8.40;45.57;99892.75;5091070;28;20038;-47
2022/02/01 08:41:59;;;;;;;813.55;101.63;;;;;;;8.39;45.23;99892.91;5092268;28;20023;-48
2022/02/01 08:44:28;;;;;;;460.98;60.00;;;;;;;8.55;45.09;99894.81;5072052;28;20037;-49
2022/02/01 08:46:55;;;;;;;262.08;29.35;;;;;;;8.71;45.87;99891.44;5072002;28;20490;-47
2022/02/01 08:49:21;;;;;;;429.42;49.60;;;;;;;9.08;44.78;99893.69;5071971;28;20119;-48
2022/02/01 08:51:57;;;;;;;317.95;38.95;;;;;;;9.04;43.84;99894.19;5071971;28;20048;-49
2022/02/01 08:54:26;;;;;;;481.00;57.05;;;;;;;8.83;44.15;99889.34;5070852;28;20032;-48
2022/02/01 08:59:37;;;;;;;522.05;58.60;;;;;;;9.37;44.21;99890.59;5071951;28;20414;-48
2022/02/01 09:02:03;;;;;;;349.83;38.72;;;;;;;10.22;43.44;99885.94;5071762;28;20032;-48
2022/02/01 09:04:29;;;;;;;152.00;16.38;;;;;;;11.12;41.50;99877.69;5071814;28;20078;-49
2022/02/01 09:06:55;;;;;;;189.88;22.13;;;;;;;11.66;39.30;99884.69;5071798;28;20017;-49
2022/02/01 09:09:21;;;;;;;432.65;47.80;;;;;;;11.09;39.63;99896.44;5071981;28;20505;-49
2022/02/01 09:11:48;;;;;;;567.80;69.05;;;;;;;11.29;39.48;99897.63;5070428;28;20024;-48
2022/02/01 09:14:14;;;;;;;291.75;32.22;;;;;;;11.64;38.98;99903.25;5071749;28;20483;-48
2022/02/01 09:16:41;;;;;;;402.70;47.50;;;;;;;12.09;38.79;99898.09;5071687;28;20022;-48
2022/02/01 09:19:07;;;;;;;759.03;93.28;;;;;;;11.60;38.65;99923.00;5071670;28;20025;-48
2022/02/01 09:21:33;;;;;;;428.33;50.80;;;;;;;10.98;39.33;99929.16;5071667;28;20024;-48
2022/02/01 09:23:59;;;;;;;457.35;50.85;;;;;;;11.14;40.21;99930.88;5071634;28;20517;-47
2022/02/01 09:26:24;;;;;;;317.23;34.80;;;;;;;11.99;39.31;99929.94;5074374;28;20107;-48
2022/02/01 09:28:51;;;;;;;189.00;33.00;;;;;;;12.17;38.83;99932.25;5075594;28;20028;-48
2022/02/01 09:31:17;;;;;;;472.20;182.35;;;;;;;11.99;38.71;99922.88;5075623;28;20020;-49
2022/02/01 09:33:43;;;;;;;267.83;42.33;;;;;;;12.13;38.36;99918.66;5075654;28;20050;-48
2022/02/01 09:36:09;;;;;;;335.65;78.47;;;;;;;12.63;37.52;99920.72;5075544;28;20032;-48
2022/02/01 09:38:36;;;;;;;475.55;60.22;;;;;;;12.73;36.14;99908.91;5075504;28;20519;-49
2022/02/01 09:41:03;;;;;;;642.75;84.75;;;;;;;12.85;36.01;99916.34;5075461;28;20391;-49
2022/02/01 09:43:29;;;;;;;379.60;43.95;;;;;;;13.17;35.54;99909.81;5087723;28;20059;-50
2022/02/01 09:45:58;;;;;;;180.18;21.77;;;;;;;13.17;36.06;99907.16;5095687;28;20020;-49
2022/02/01 09:48:23;;;;;;;186.07;20.42;;;;;;;13.17;35.68;99912.44;5095723;28;20024;-49
2022/02/01 09:50:50;;;;;;;411.42;46.78;;;;;;;13.11;35.69;99908.72;5095402;28;20024;-49
2022/02/01 09:53:18;;;;;;;297.45;39.35;;;;;;;13.16;36.01;99908.19;5095571;28;20024;-49
2022/02/01 09:55:43;;;;;;;606.60;80.55;;;;;;;13.30;35.08;99890.69;5095473;28;20436;-48
2022/02/01 09:58:12;;;;;;;202.00;22.92;;;;;;;13.64;34.70;99903.16;5095433;28;20032;-49
2022/02/01 10:00:44;;;;;;;483.88;62.72;;;;;;;13.81;34.36;99895.00;5095301;28;20020;-49
2022/02/01 10:03:19;;;;;;;202.98;24.25;;;;;;;14.13;33.31;99896.25;5095382;28;20028;-49
2022/02/01 10:06:11;;;;;;;755.63;91.57;;;;;;;14.77;33.43;99897.81;5095325;28;20103;-49
2022/02/01 10:08:38;;;;;;;354.00;46.15;;;;;;;15.29;32.57;99890.19;5095336;28;20398;-48
2022/02/01 10:11:08;;;;;;;391.98;40.75;;;;;;;15.43;32.13;99886.56;5095111;28;20025;-49
2022/02/01 10:13:37;;;;;;;253.35;31.27;;;;;;;15.58;32.19;99881.09;5095510;28;20390;-49
2022/02/01 10:16:13;;;;;;;529.53;66.32;;;;;;;15.94;31.31;99882.53;5095101;28;20386;-49
2022/02/01 10:18:39;;;;;;;401.20;55.28;;;;;;;16.31;30.95;99891.59;5095123;28;20028;-49
2022/02/01 10:21:07;;;;;;;293.13;32.83;;;;;;;16.69;30.51;99882.09;5094933;28;20023;-49
2022/02/01 10:23:34;;;;;;;247.13;28.45;;;;;;;16.78;29.64;99875.53;5094979;28;20070;-50
2022/02/01 10:26:12;;;;;;;742.65;89.10;;;;;;;16.65;29.95;99865.81;5093557;28;20103;-49
2022/02/01 10:31:27;;;;;;;233.82;26.80;;;;;;;17.15;28.82;99873.13;5094889;28;20032;-49
2022/02/01 10:34:02;;;;;;;564.63;69.93;;;;;;;17.55;28.01;99872.84;5094795;28;20401;-50
2022/02/01 10:36:39;;;;;;;310.42;35.28;;;;;;;17.86;28.14;99864.00;5094208;28;20024;-50
2022/02/01 10:39:26;;;;;;;317.50;38.30;;;;;;;18.25;27.33;99864.66;5094711;28;20367;-50
2022/02/01 10:42:04;;;;;;;246.60;27.88;;;;;;;18.44;26.86;99864.63;5094584;28;20032;-50
2022/02/01 10:44:39;;;;;;;215.57;22.38;;;;;;;18.63;26.85;99873.38;5054340;28;20045;-49
2022/02/01 10:47:06;;;;;;;225.15;27.27;;;;;;;18.75;26.16;99874.25;5054254;28;20017;-49
2022/02/01 10:49:32;;;;;;;224.35;23.17;;;;;;;19.01;26.29;99869.66;5054127;28;20026;-50
2022/02/01 10:52:04;;;;;;;324.33;33.40;;;;;;;18.93;25.79;99870.78;5054102;28;20445;-50
2022/02/01 10:54:31;;;;;;;290.38;32.38;;;;;;;18.34;26.47;99870.47;5054130;28;20040;-49
2022/02/01 10:56:58;;;;;;;330.67;39.60;;;;;;;18.08;26.60;99879.53;5054007;28;20017;-49
2022/02/01 10:59:24;;;;;;;467.17;57.80;;;;;;;17.85;26.53;99861.56;5054015;28;20029;-49
2022/02/01 11:01:51;;;;;;;251.82;27.08;;;;;;;17.46;27.79;99853.69;5053979;28;20017;-50
2022/02/01 11:04:20;;;;;;;341.65;37.92;;;;;;;17.03;28.25;99866.88;5053934;28;20032;-50
2022/02/01 11:06:51;;;;;;;399.83;50.22;;;;;;;16.86;28.01;99869.19;5053732;28;20024;-49
2022/02/01 11:09:30;;;;;;;351.17;38.03;;;;;;;16.73;28.33;99862.09;5053816;28;20087;-50
2022/02/01 11:12:04;;;;;;;233.23;30.38;;;;;;;16.63;28.35;99853.78;5052485;28;20102;-49
2022/02/01 11:14:37;;;;;;;223.07;23.40;;;;;;;16.39;29.09;99850.81;5052475;28;20033;-50
2022/02/01 11:17:15;;;;;;;394.73;46.88;;;;;;;16.66;28.94;99832.16;5053706;28;20021;-50
2022/02/01 11:19:59;;;;;;;571.35;66.72;;;;;;;16.88;28.47;99838.81;5053610;28;20029;-49
2022/02/01 11:22:30;;;;;;;302.65;32.28;;;;;;;17.32;28.06;99834.41;5053957;28;20017;-50
2022/02/01 11:25:39;;;;;;;144.48;16.55;;;;;;;17.45;27.51;99832.72;5053573;28;20110;-49
2022/02/01 11:30:39;;;;;;;668.58;92.95;;;;;;;16.66;28.16;99829.50;5053328;28;20068;-49
2022/02/01 11:33:07;;;;;;;325.48;36.17;;;;;;;16.58;28.64;99831.38;5053479;28;20049;-50
2022/02/01 11:35:33;;;;;;;156.25;18.40;;;;;;;16.38;28.02;99822.72;5053337;28;20027;-49
2022/02/01 11:38:20;;;;;;;251.00;30.42;;;;;;;15.76;28.91;99825.72;5053247;28;20108;-49
2022/02/01 11:40:57;;;;;;;468.40;56.38;;;;;;;15.26;28.63;99817.38;5053229;28;20024;-50
2022/02/01 11:43:25;;;;;;;736.85;94.53;;;;;;;14.79;28.87;99819.16;5075836;28;20056;-50
2022/02/01 11:45:54;;;;;;;710.70;90.82;;;;;;;14.42;29.58;99823.06;5093292;28;20031;-50
2022/02/01 11:48:29;;;;;;;209.90;22.30;;;;;;;13.90;30.24;99830.50;5092391;28;20153;-49
2022/02/01 11:51:07;;;;;;;284.17;33.00;;;;;;;13.58;30.53;99825.63;5093203;28;20027;-49
2022/02/01 11:53:33;;;;;;;345.88;34.08;;;;;;;13.56;30.78;99827.66;5092148;28;20261;-48
2022/02/01 11:56:00;;;;;;;680.55;86.22;;;;;;;13.58;30.74;99824.78;5091793;28;20024;-48
2022/02/01 11:58:28;;;;;;;944.45;123.38;;;;;;;13.42;30.94;99830.34;5093155;28;20036;-49
2022/02/01 12:00:54;;;;;;;615.75;70.75;;;;;;;13.15;31.33;99824.81;5093086;28;20080;-47
2022/02/01 12:03:26;;;;;;;866.08;114.00;;;;;;;12.88;31.95;99821.94;5091726;28;20107;-48
2022/02/01 12:05:59;;;;;;;67.22;7.00;;;;;;;12.84;32.05;99825.97;5091695;28;20028;-49
2022/02/01 12:08:31;;;;;;;22.88;3.35;;;;;;;12.87;32.18;99820.28;5092995;28;20024;-48
2022/02/01 12:11:01;;;;;;;12.98;2.30;;;;;;;12.82;32.22;99813.94;5092781;28;20055;-48
2022/02/01 12:13:29;;;;;;;15.65;2.58;;;;;;;12.61;32.74;99810.28;5092910;28;20050;-47
2022/02/01 12:16:00;;;;;;;17.10;3.13;;;;;;;12.51;33.13;99807.94;5092774;28;20103;-48
2022/02/01 12:18:48;;;;;;;13.85;3.25;;;;;;;12.59;32.92;99804.41;5092844;28;20040;-49
2022/02/01 12:21:28;;;;;;;16.80;2.47;;;;;;;12.83;33.24;99786.63;5091414;28;20395;-48
2022/02/01 12:23:56;;;;;;;9.57;2.13;;;;;;;13.11;32.68;99781.41;5092664;28;20016;-49
2022/02/01 12:26:25;;;;;;;7.00;1.98;;;;;;;13.45;32.78;99777.25;5092623;28;20055;-49
2022/02/01 12:28:53;;;;;;;20.10;3.88;;;;;;;13.82;31.72;99775.25;5092597;28;20020;-49
2022/02/01 12:31:21;;;;;;;14.45;2.70;;;;;;;13.74;31.57;99778.84;5091087;28;20024;-48
2022/02/01 12:33:51;;;;;;;14.68;2.72;;;;;;;13.58;32.09;99779.97;5091162;28;20035;-50
2022/02/01 12:36:26;;;;;;;11.68;2.33;;;;;;;13.77;32.00;99766.09;5092469;28;20503;-49
2022/02/01 12:39:18;;;;;;;12.45;2.15;;;;;;;14.01;31.85;99761.34;5092501;28;20031;-49
2022/02/01 12:42:00;;;;;;;13.35;2.85;;;;;;;14.49;30.99;99744.66;5092353;28;20101;-48
2022/02/01 12:46:58;;;;;;;21.15;3.97;;;;;;;15.03;29.88;99756.97;5092299;28;20067;-50
2022/02/01 12:49:42;;;;;;;16.35;2.30;;;;;;;15.36;29.33;99743.72;5092154;28;20024;-50
2022/02/01 12:52:25;;;;;;;9.48;2.10;;;;;;;15.21;29.17;99740.47;5092254;28;20038;-50
2022/02/01 12:55:19;;;;;;;10.45;1.75;;;;;;;14.88;29.71;99748.41;5090804;28;20043;-50
2022/02/01 12:57:44;;;;;;;17.80;2.45;;;;;;;14.50;29.97;99744.44;5089768;28;20115;-49
2022/02/01 13:00:13;;;;;;;19.45;2.65;;;;;;;14.48;30.00;99735.91;5091847;28;20056;-49